createdAt,value
2023-04-22T00:00:15.641Z,1010.21
2023-04-22T00:01:15.646Z,1010.23
2023-04-22T00:02:15.686Z,1010.17
2023-04-22T00:03:15.783Z,1010.18
2023-04-22T00:04:15.923Z,1010.18
2023-04-22T00:05:18.544Z,1010.17
2023-04-22T00:06:15.568Z,1010.15
2023-04-22T00:07:15.572Z,1010.13
2023-04-22T00:08:15.571Z,1010.13
2023-04-22T00:09:15.661Z,1010.15
2023-04-22T00:10:15.530Z,1010.11
2023-04-22T00:11:15.527Z,1010.10
2023-04-22T00:12:15.510Z,1010.08
2023-04-22T00:13:15.525Z,1010.03
2023-04-22T00:14:15.503Z,1010.04
2023-04-22T00:15:15.502Z,1010.03
2023-04-22T00:16:15.554Z,1010.04
2023-04-22T00:17:15.435Z,1010.01
2023-04-22T00:18:15.439Z,1009.97
2023-04-22T00:19:15.439Z,1009.96
2023-04-22T00:20:15.422Z,1009.93
2023-04-22T00:21:15.450Z,1010.00
2023-04-22T00:22:15.392Z,1009.95
2023-04-22T00:23:15.382Z,1009.90
2023-04-22T00:24:15.385Z,1009.98
2023-04-22T00:25:15.364Z,1009.87
2023-04-22T00:26:15.352Z,1009.88
2023-04-22T00:27:15.329Z,1009.91
2023-04-22T00:28:15.327Z,1009.89
2023-04-22T00:29:15.361Z,1009.89
2023-04-22T00:30:15.310Z,1009.93
2023-04-22T00:31:15.302Z,1009.86
2023-04-22T00:32:15.276Z,1009.86
2023-04-22T00:33:15.261Z,1009.88
2023-04-22T00:34:15.257Z,1009.85
2023-04-22T00:35:15.290Z,1009.84
2023-04-22T00:36:15.248Z,1009.81
2023-04-22T00:37:15.225Z,1009.87
2023-04-22T00:38:15.545Z,1009.85
2023-04-22T00:39:15.207Z,1009.83
2023-04-22T00:40:15.341Z,1009.83
2023-04-22T00:41:15.173Z,1009.85
2023-04-22T00:42:15.177Z,1009.83
2023-04-22T00:43:15.145Z,1009.86
2023-04-22T00:44:15.164Z,1009.83
2023-04-22T00:45:15.131Z,1009.87
2023-04-22T00:46:15.163Z,1009.79
2023-04-22T00:47:15.164Z,1009.87
2023-04-22T00:48:15.110Z,1009.82
2023-04-22T00:49:15.126Z,1009.84
2023-04-22T00:50:15.090Z,1009.87
2023-04-22T00:51:15.060Z,1009.84
2023-04-22T00:52:15.049Z,1009.80
2023-04-22T00:53:15.043Z,1009.81
2023-04-22T00:54:15.028Z,1009.79
2023-04-22T00:55:15.026Z,1009.76
2023-04-22T00:56:15.012Z,1009.76
2023-04-22T00:57:15.003Z,1009.75
2023-04-22T00:58:15.006Z,1009.74
2023-04-22T00:59:14.998Z,1009.72
2023-04-22T01:00:14.967Z,1009.75
2023-04-22T01:01:15.040Z,1009.72
2023-04-22T01:02:15.039Z,1009.76
2023-04-22T01:03:15.108Z,1009.73
2023-04-22T01:04:15.053Z,1009.72
2023-04-22T01:05:14.913Z,1009.74
2023-04-22T01:06:14.912Z,1009.71
2023-04-22T01:07:14.895Z,1009.70
2023-04-22T01:08:14.868Z,1009.72
2023-04-22T01:09:14.887Z,1009.73
2023-04-22T01:10:14.885Z,1009.68
2023-04-22T01:11:14.872Z,1009.70
2023-04-22T01:12:14.837Z,1009.68
2023-04-22T01:13:14.829Z,1009.68
2023-04-22T01:14:14.816Z,1009.71
2023-04-22T01:15:14.831Z,1009.68
2023-04-22T01:16:14.802Z,1009.69
2023-04-22T01:17:14.856Z,1009.71
2023-04-22T01:18:15.043Z,1009.72
2023-04-22T01:19:14.769Z,1009.73
2023-04-22T01:20:14.966Z,1009.65
2023-04-22T01:21:14.729Z,1009.70
2023-04-22T01:22:14.718Z,1009.72
2023-04-22T01:23:14.715Z,1009.67
2023-04-22T01:24:14.698Z,1009.70
2023-04-22T01:25:15.678Z,1009.67
2023-04-22T01:26:14.669Z,1009.64
2023-04-22T01:27:14.714Z,1009.64
2023-04-22T01:28:14.657Z,1009.63
2023-04-22T01:29:14.645Z,1009.63
2023-04-22T01:30:14.621Z,1009.61
2023-04-22T01:31:14.613Z,1009.63
2023-04-22T01:32:14.699Z,1009.58
2023-04-22T01:33:14.640Z,1009.57
2023-04-22T01:34:14.609Z,1009.55
2023-04-22T01:35:14.563Z,1009.59
2023-04-22T01:36:14.560Z,1009.58
2023-04-22T01:37:14.556Z,1009.61
2023-04-22T01:38:14.536Z,1009.57
2023-04-22T01:39:14.521Z,1009.57
2023-04-22T01:40:14.530Z,1009.57
2023-04-22T01:41:14.500Z,1009.58
2023-04-22T01:42:14.501Z,1009.56
2023-04-22T01:43:14.475Z,1009.59
2023-04-22T01:44:14.473Z,1009.57
2023-04-22T01:45:14.472Z,1009.56
2023-04-22T01:46:14.472Z,1009.55
2023-04-22T01:47:14.449Z,1009.53
2023-04-22T01:48:14.486Z,1009.52
2023-04-22T01:49:14.426Z,1009.50
2023-04-22T01:50:14.408Z,1009.51
2023-04-22T01:51:14.472Z,1009.45
2023-04-22T01:52:14.393Z,1009.48
2023-04-22T01:53:14.518Z,1009.44
2023-04-22T01:54:14.355Z,1009.44
2023-04-22T01:55:14.355Z,1009.43
2023-04-22T01:56:14.342Z,1009.45
2023-04-22T01:57:14.461Z,1009.40
2023-04-22T01:58:14.313Z,1009.45
2023-04-22T01:59:14.300Z,1009.43
2023-04-22T02:00:14.394Z,1009.44
2023-04-22T02:01:14.312Z,1009.43
2023-04-22T02:02:14.311Z,1009.40
2023-04-22T02:03:14.302Z,1009.41
2023-04-22T02:04:14.266Z,1009.39
2023-04-22T02:05:14.435Z,1009.38
2023-04-22T02:06:14.224Z,1009.36
2023-04-22T02:07:14.469Z,1009.36
2023-04-22T02:08:14.236Z,1009.37
2023-04-22T02:09:14.193Z,1009.38
2023-04-22T02:10:14.196Z,1009.35
2023-04-22T02:11:14.169Z,1009.34
2023-04-22T02:12:14.154Z,1009.38
2023-04-22T02:13:14.148Z,1009.36
2023-04-22T02:14:14.149Z,1009.33
2023-04-22T02:15:14.124Z,1009.31
2023-04-22T02:16:14.160Z,1009.30
2023-04-22T02:17:14.173Z,1009.31
2023-04-22T02:18:14.093Z,1009.27
2023-04-22T02:19:14.149Z,1009.27
2023-04-22T02:20:14.101Z,1009.24
2023-04-22T02:21:14.073Z,1009.21
2023-04-22T02:22:14.043Z,1009.22
2023-04-22T02:23:14.047Z,1009.25
2023-04-22T02:24:14.230Z,1009.20
2023-04-22T02:25:14.057Z,1009.21
2023-04-22T02:26:14.043Z,1009.21
2023-04-22T02:27:13.990Z,1009.25
2023-04-22T02:28:13.982Z,1009.18
2023-04-22T02:29:13.981Z,1009.17
2023-04-22T02:30:13.976Z,1009.17
2023-04-22T02:31:14.054Z,1009.16
2023-04-22T02:32:13.940Z,1009.19
2023-04-22T02:33:13.918Z,1009.16
2023-04-22T02:34:13.907Z,1009.14
2023-04-22T02:35:13.912Z,1009.14
2023-04-22T02:36:13.910Z,1009.10
2023-04-22T02:37:13.881Z,1009.10
2023-04-22T02:38:13.884Z,1009.07
2023-04-22T02:39:13.858Z,1009.04
2023-04-22T02:40:13.851Z,1009.08
2023-04-22T02:41:13.847Z,1009.04
2023-04-22T02:42:13.818Z,1009.01
2023-04-22T02:43:13.856Z,1008.99
2023-04-22T02:44:13.795Z,1009.01
2023-04-22T02:45:13.788Z,1008.96
2023-04-22T02:46:13.864Z,1008.93
2023-04-22T02:47:13.758Z,1009.01
2023-04-22T02:48:13.757Z,1008.96
2023-04-22T02:49:13.750Z,1008.89
2023-04-22T02:50:13.734Z,1008.99
2023-04-22T02:51:13.711Z,1008.99
2023-04-22T02:52:13.714Z,1008.95
2023-04-22T02:53:13.734Z,1008.98
2023-04-22T02:54:13.690Z,1008.97
2023-04-22T02:55:13.677Z,1008.97
2023-04-22T02:56:13.664Z,1008.96
2023-04-22T02:57:13.679Z,1008.96
2023-04-22T02:58:13.648Z,1008.96
2023-04-22T02:59:13.623Z,1008.94
2023-04-22T03:00:13.654Z,1008.92
2023-04-22T03:01:13.634Z,1008.94
2023-04-22T03:02:13.829Z,1008.92
2023-04-22T03:03:13.855Z,1008.94
2023-04-22T03:04:13.869Z,1008.92
2023-04-22T03:05:13.571Z,1008.96
2023-04-22T03:06:13.576Z,1008.94
2023-04-22T03:07:13.552Z,1008.92
2023-04-22T03:08:13.526Z,1008.93
2023-04-22T03:09:13.520Z,1008.93
2023-04-22T03:10:13.511Z,1008.98
2023-04-22T03:11:13.511Z,1008.95
2023-04-22T03:12:13.480Z,1008.97
2023-04-22T03:13:13.466Z,1008.93
2023-04-22T03:14:13.470Z,1008.96
2023-04-22T03:15:13.451Z,1008.91
2023-04-22T03:16:13.498Z,1008.91
2023-04-22T03:17:13.437Z,1008.94
2023-04-22T03:18:13.424Z,1008.92
2023-04-22T03:19:13.407Z,1008.85
2023-04-22T03:20:13.386Z,1008.91
2023-04-22T03:21:13.391Z,1008.93
2023-04-22T03:22:13.369Z,1008.91
2023-04-22T03:23:13.362Z,1008.88
2023-04-22T03:24:13.361Z,1008.90
2023-04-22T03:25:13.348Z,1008.88
2023-04-22T03:26:13.330Z,1008.87
2023-04-22T03:27:13.302Z,1008.90
2023-04-22T03:28:13.297Z,1008.86
2023-04-22T03:29:13.283Z,1008.90
2023-04-22T03:30:13.716Z,1008.89
2023-04-22T03:31:13.272Z,1008.88
2023-04-22T03:32:13.387Z,1008.93
2023-04-22T03:33:13.470Z,1008.88
2023-04-22T03:34:13.328Z,1008.93
2023-04-22T03:35:13.252Z,1008.95
2023-04-22T03:36:13.217Z,1008.94
2023-04-22T03:37:13.210Z,1008.91
2023-04-22T03:38:13.234Z,1008.95
2023-04-22T03:39:13.175Z,1008.92
2023-04-22T03:40:13.862Z,1008.94
2023-04-22T03:41:13.163Z,1008.95
2023-04-22T03:42:13.156Z,1008.92
2023-04-22T03:43:13.146Z,1008.94
2023-04-22T03:44:13.162Z,1008.90
2023-04-22T03:45:13.108Z,1008.93
2023-04-22T03:46:13.159Z,1008.92
2023-04-22T03:47:13.108Z,1008.91
2023-04-22T03:48:13.078Z,1008.97
2023-04-22T03:49:13.190Z,1008.91
2023-04-22T03:50:13.070Z,1008.93
2023-04-22T03:51:13.039Z,1008.94
2023-04-22T03:52:13.037Z,1008.98
2023-04-22T03:53:13.029Z,1008.92
2023-04-22T03:54:13.698Z,1008.98
2023-04-22T03:55:12.991Z,1009.00
2023-04-22T03:56:13.251Z,1009.00
2023-04-22T03:57:12.988Z,1008.99
2023-04-22T03:58:12.966Z,1008.98
2023-04-22T03:59:12.963Z,1008.99
2023-04-22T04:00:12.957Z,1008.94
2023-04-22T04:01:13.044Z,1009.00
2023-04-22T04:02:12.992Z,1008.97
2023-04-22T04:03:13.127Z,1008.98
2023-04-22T04:04:13.119Z,1008.96
2023-04-22T04:05:12.997Z,1008.96
2023-04-22T04:06:12.958Z,1008.98
2023-04-22T04:07:12.874Z,1008.95
2023-04-22T04:08:12.841Z,1008.96
2023-04-22T04:09:12.843Z,1008.93
2023-04-22T04:10:12.820Z,1008.92
2023-04-22T04:11:12.831Z,1008.93
2023-04-22T04:12:12.816Z,1008.95
2023-04-22T04:13:13.047Z,1008.95
2023-04-22T04:14:12.789Z,1008.95
2023-04-22T04:15:13.694Z,1008.99
2023-04-22T04:16:12.801Z,1008.97
2023-04-22T04:17:12.754Z,1008.97
2023-04-22T04:18:12.735Z,1008.97
2023-04-22T04:19:12.731Z,1009.01
2023-04-22T04:20:12.758Z,1008.97
2023-04-22T04:21:12.697Z,1008.98
2023-04-22T04:22:12.704Z,1008.97
2023-04-22T04:23:12.679Z,1009.02
2023-04-22T04:24:12.674Z,1009.03
2023-04-22T04:25:12.776Z,1009.04
2023-04-22T04:26:12.658Z,1009.07
2023-04-22T04:27:12.659Z,1009.03
2023-04-22T04:28:12.635Z,1009.00
2023-04-22T04:29:12.626Z,1009.03
2023-04-22T04:30:12.606Z,1009.06
2023-04-22T04:31:12.612Z,1008.99
2023-04-22T04:32:12.576Z,1009.00
2023-04-22T04:33:12.812Z,1009.04
2023-04-22T04:34:12.656Z,1009.04
2023-04-22T04:35:12.548Z,1009.00
2023-04-22T04:36:12.533Z,1009.03
2023-04-22T04:37:12.525Z,1008.97
2023-04-22T04:38:12.496Z,1009.02
2023-04-22T04:39:12.778Z,1009.01
2023-04-22T04:40:12.753Z,1008.94
2023-04-22T04:41:12.511Z,1008.99
2023-04-22T04:42:12.462Z,1008.99
2023-04-22T04:43:12.454Z,1008.96
2023-04-22T04:44:12.440Z,1008.96
2023-04-22T04:45:12.468Z,1008.96
2023-04-22T04:46:12.516Z,1008.96
2023-04-22T04:47:12.469Z,1008.98
2023-04-22T04:48:12.497Z,1008.98
2023-04-22T04:49:12.387Z,1008.95
2023-04-22T04:50:12.393Z,1008.98
2023-04-22T04:51:12.603Z,1008.96
2023-04-22T04:52:12.358Z,1008.94
2023-04-22T04:53:12.419Z,1009.01
2023-04-22T04:54:12.331Z,1008.99
2023-04-22T04:55:12.304Z,1009.00
2023-04-22T04:56:12.315Z,1009.04
2023-04-22T04:57:12.287Z,1009.01
2023-04-22T04:58:12.477Z,1009.05
2023-04-22T04:59:12.267Z,1009.05
2023-04-22T05:00:12.291Z,1009.06
2023-04-22T05:01:12.326Z,1009.06
2023-04-22T05:02:12.335Z,1009.06
2023-04-22T05:03:12.375Z,1009.03
2023-04-22T05:04:12.495Z,1009.06
2023-04-22T05:05:12.316Z,1009.07
2023-04-22T05:06:12.198Z,1009.06
2023-04-22T05:07:12.267Z,1009.06
2023-04-22T05:08:12.166Z,1009.01
2023-04-22T05:09:12.166Z,1009.05
2023-04-22T05:10:12.215Z,1009.07
2023-04-22T05:11:12.134Z,1009.03
2023-04-22T05:12:12.309Z,1009.01
2023-04-22T05:13:12.155Z,1009.00
2023-04-22T05:14:12.202Z,1009.05
2023-04-22T05:15:12.093Z,1009.00
2023-04-22T05:16:12.141Z,1009.01
2023-04-22T05:17:12.110Z,1008.99
2023-04-22T05:18:12.105Z,1008.98
2023-04-22T05:19:12.056Z,1008.96
2023-04-22T05:20:12.034Z,1008.95
2023-04-22T05:21:12.066Z,1008.99
2023-04-22T05:22:12.015Z,1008.96
2023-04-22T05:23:12.030Z,1008.93
2023-04-22T05:24:11.996Z,1008.89
2023-04-22T05:25:11.979Z,1008.95
2023-04-22T05:26:11.972Z,1008.90
2023-04-22T05:27:11.954Z,1008.89
2023-04-22T05:28:12.044Z,1008.93
2023-04-22T05:29:11.953Z,1008.93
2023-04-22T05:30:11.928Z,1008.91
2023-04-22T05:31:11.961Z,1008.93
2023-04-22T05:32:11.984Z,1008.94
2023-04-22T05:33:11.987Z,1008.93
2023-04-22T05:34:11.890Z,1008.94
2023-04-22T05:35:11.891Z,1008.92
2023-04-22T05:36:11.938Z,1008.90
2023-04-22T05:37:11.848Z,1008.88
2023-04-22T05:38:11.845Z,1008.95
2023-04-22T05:39:11.827Z,1008.93
2023-04-22T05:40:11.856Z,1008.95
2023-04-22T05:41:11.803Z,1008.95
2023-04-22T05:42:11.821Z,1008.96
2023-04-22T05:43:11.822Z,1008.98
2023-04-22T05:44:11.802Z,1008.99
2023-04-22T05:45:11.776Z,1008.99
2023-04-22T05:46:11.798Z,1008.97
2023-04-22T05:47:11.790Z,1008.94
2023-04-22T05:48:11.798Z,1008.97
2023-04-22T05:49:11.717Z,1008.94
2023-04-22T05:50:11.710Z,1008.96
2023-04-22T05:51:11.696Z,1008.97
2023-04-22T05:52:11.664Z,1008.93
2023-04-22T05:53:11.708Z,1008.94
2023-04-22T05:54:11.671Z,1008.95
2023-04-22T05:55:11.756Z,1009.00
2023-04-22T05:56:11.628Z,1008.94
2023-04-22T05:57:11.641Z,1008.92
2023-04-22T05:58:11.599Z,1008.94
2023-04-22T05:59:20.340Z,1008.92
2023-04-22T06:00:11.581Z,1008.96
2023-04-22T06:01:11.705Z,1008.98
2023-04-22T06:02:11.695Z,1008.97
2023-04-22T06:03:11.794Z,1008.97
2023-04-22T06:04:11.841Z,1008.98
2023-04-22T06:05:11.760Z,1008.98
2023-04-22T06:06:11.516Z,1009.00
2023-04-22T06:07:11.524Z,1008.96
2023-04-22T06:08:11.485Z,1008.99
2023-04-22T06:09:11.472Z,1008.86
2023-04-22T06:10:11.461Z,1008.93
2023-04-22T06:11:11.457Z,1008.96
2023-04-22T06:12:11.455Z,1008.91
2023-04-22T06:13:11.440Z,1008.95
2023-04-22T06:14:11.413Z,1008.92
2023-04-22T06:15:11.417Z,1008.92
2023-04-22T06:16:11.404Z,1008.92
2023-04-22T06:17:11.414Z,1008.94
2023-04-22T06:18:12.243Z,1008.99
2023-04-22T06:19:11.358Z,1008.93
2023-04-22T06:20:11.363Z,1008.92
2023-04-22T06:21:11.474Z,1008.95
2023-04-22T06:22:11.330Z,1008.94
2023-04-22T06:23:11.317Z,1008.93
2023-04-22T06:24:11.342Z,1008.96
2023-04-22T06:25:11.294Z,1008.94
2023-04-22T06:26:11.293Z,1008.93
2023-04-22T06:27:11.282Z,1008.92
2023-04-22T06:28:11.256Z,1009.00
2023-04-22T06:29:11.258Z,1008.92
2023-04-22T06:30:11.243Z,1008.96
2023-04-22T06:31:11.366Z,1009.01
2023-04-22T06:32:11.224Z,1008.96
2023-04-22T06:33:11.248Z,1008.98
2023-04-22T06:34:11.210Z,1008.97
2023-04-22T06:35:11.201Z,1008.96
2023-04-22T06:36:11.189Z,1008.94
2023-04-22T06:37:11.245Z,1008.92
2023-04-22T06:38:11.152Z,1008.98
2023-04-22T06:39:11.190Z,1008.96
2023-04-22T06:40:11.154Z,1008.94
2023-04-22T06:41:11.117Z,1008.98
2023-04-22T06:42:11.112Z,1008.94
2023-04-22T06:43:11.097Z,1008.99
2023-04-22T06:44:11.128Z,1008.99
2023-04-22T06:45:11.070Z,1008.91
2023-04-22T06:46:11.107Z,1008.87
2023-04-22T06:47:11.047Z,1008.91
2023-04-22T06:48:11.054Z,1008.90
2023-04-22T06:49:11.046Z,1008.81
2023-04-22T06:50:11.022Z,1008.82
2023-04-22T06:51:11.023Z,1008.83
2023-04-22T06:52:10.992Z,1008.82
2023-04-22T06:53:11.026Z,1008.78
2023-04-22T06:54:10.961Z,1008.79
2023-04-22T06:55:10.957Z,1008.83
2023-04-22T06:56:10.947Z,1008.84
2023-04-22T06:57:10.969Z,1008.83
2023-04-22T06:58:11.776Z,1008.91
2023-04-22T06:59:10.945Z,1008.90
2023-04-22T07:00:10.911Z,1008.87
2023-04-22T07:01:10.883Z,1008.92
2023-04-22T07:02:10.963Z,1008.85
2023-04-22T07:03:10.939Z,1008.88
2023-04-22T07:04:10.873Z,1008.83
2023-04-22T07:05:10.868Z,1008.84
2023-04-22T07:06:10.835Z,1008.79
2023-04-22T07:07:10.829Z,1008.79
2023-04-22T07:08:10.847Z,1008.86
2023-04-22T07:09:10.921Z,1008.76
2023-04-22T07:10:10.791Z,1008.76
2023-04-22T07:11:12.519Z,1008.77
2023-04-22T07:12:10.804Z,1008.81
2023-04-22T07:13:10.820Z,1008.82
2023-04-22T07:14:10.747Z,1008.81
2023-04-22T07:15:10.738Z,1008.85
2023-04-22T07:16:10.758Z,1008.89
2023-04-22T07:17:10.712Z,1008.91
2023-04-22T07:18:10.705Z,1008.82
2023-04-22T07:19:10.690Z,1008.81
2023-04-22T07:20:10.705Z,1008.85
2023-04-22T07:21:10.669Z,1008.83
2023-04-22T07:22:10.666Z,1008.86
2023-04-22T07:23:10.648Z,1008.88
2023-04-22T07:24:10.657Z,1008.86
2023-04-22T07:25:10.660Z,1008.91
2023-04-22T07:26:10.610Z,1008.90
2023-04-22T07:27:10.603Z,1008.91
2023-04-22T07:28:10.604Z,1008.87
2023-04-22T07:29:10.592Z,1008.87
2023-04-22T07:30:10.561Z,1008.89
2023-04-22T07:31:10.563Z,1008.88
2023-04-22T07:32:10.662Z,1008.86
2023-04-22T07:33:10.551Z,1008.87
2023-04-22T07:34:10.649Z,1008.88
2023-04-22T07:35:10.534Z,1008.87
2023-04-22T07:36:10.499Z,1008.90
2023-04-22T07:37:10.501Z,1008.89
2023-04-22T07:38:12.693Z,1008.85
2023-04-22T07:39:10.468Z,1008.92
2023-04-22T07:40:10.537Z,1008.82
2023-04-22T07:41:10.474Z,1008.83
2023-04-22T07:42:10.443Z,1008.79
2023-04-22T07:43:10.440Z,1008.83
2023-04-22T07:44:10.413Z,1008.86
2023-04-22T07:45:10.476Z,1008.88
2023-04-22T07:46:10.439Z,1008.84
2023-04-22T07:47:10.405Z,1008.88
2023-04-22T07:48:10.404Z,1008.85
2023-04-22T07:49:10.384Z,1008.86
2023-04-22T07:50:10.346Z,1008.89
2023-04-22T07:51:10.348Z,1008.85
2023-04-22T07:52:10.349Z,1008.91
2023-04-22T07:53:10.319Z,1008.87
2023-04-22T07:54:10.321Z,1008.87
2023-04-22T07:55:10.297Z,1008.84
2023-04-22T07:56:10.323Z,1008.81
2023-04-22T07:57:10.302Z,1008.81
2023-04-22T07:58:10.264Z,1008.78
2023-04-22T07:59:10.258Z,1008.77
2023-04-22T08:00:10.294Z,1008.84
2023-04-22T08:01:10.348Z,1008.80
2023-04-22T08:02:10.351Z,1008.84
2023-04-22T08:03:10.466Z,1008.80
2023-04-22T08:04:10.587Z,1008.77
2023-04-22T08:05:10.269Z,1008.77
2023-04-22T08:06:10.361Z,1008.79
2023-04-22T08:07:29.800Z,1008.75
2023-04-22T08:08:11.176Z,1008.74
2023-04-22T08:09:10.153Z,1008.68
2023-04-22T08:10:10.142Z,1008.67
2023-04-22T08:11:10.127Z,1008.70
2023-04-22T08:12:10.128Z,1008.77
2023-04-22T08:13:10.152Z,1008.66
2023-04-22T08:14:10.112Z,1008.71
2023-04-22T08:15:10.097Z,1008.70
2023-04-22T08:16:10.118Z,1008.73
2023-04-22T08:17:10.073Z,1008.71
2023-04-22T08:18:10.152Z,1008.67
2023-04-22T08:19:10.269Z,1008.67
2023-04-22T08:20:10.047Z,1008.66
2023-04-22T08:21:10.045Z,1008.65
2023-04-22T08:22:10.017Z,1008.70
2023-04-22T08:23:10.020Z,1008.67
2023-04-22T08:24:10.020Z,1008.68
2023-04-22T08:25:09.991Z,1008.68
2023-04-22T08:26:10.013Z,1008.66
2023-04-22T08:27:10.018Z,1008.68
2023-04-22T08:28:09.995Z,1008.70
2023-04-22T08:29:10.052Z,1008.69
2023-04-22T08:30:09.942Z,1008.65
2023-04-22T08:31:09.996Z,1008.71
2023-04-22T08:32:10.037Z,1008.70
2023-04-22T08:33:10.033Z,1008.61
2023-04-22T08:34:09.899Z,1008.63
2023-04-22T08:35:09.883Z,1008.60
2023-04-22T08:36:09.912Z,1008.60
2023-04-22T08:37:09.865Z,1008.63
2023-04-22T08:38:09.864Z,1008.64
2023-04-22T08:39:09.846Z,1008.59
2023-04-22T08:40:09.856Z,1008.62
2023-04-22T08:41:09.836Z,1008.64
2023-04-22T08:42:09.841Z,1008.60
2023-04-22T08:43:09.830Z,1008.61
2023-04-22T08:44:09.797Z,1008.68
2023-04-22T08:45:09.941Z,1008.64
2023-04-22T08:46:09.819Z,1008.61
2023-04-22T08:47:09.889Z,1008.62
2023-04-22T08:48:09.792Z,1008.64
2023-04-22T08:49:09.749Z,1008.61
2023-04-22T08:50:09.825Z,1008.58
2023-04-22T08:51:09.719Z,1008.67
2023-04-22T08:52:09.715Z,1008.68
2023-04-22T08:53:09.710Z,1008.65
2023-04-22T08:54:09.699Z,1008.56
2023-04-22T08:55:09.695Z,1008.66
2023-04-22T08:56:09.676Z,1008.68
2023-04-22T08:57:09.678Z,1008.68
2023-04-22T08:58:09.664Z,1008.67
2023-04-22T08:59:09.640Z,1008.72
2023-04-22T09:00:09.666Z,1008.70
2023-04-22T09:01:09.658Z,1008.72
2023-04-22T09:02:09.665Z,1008.58
2023-04-22T09:03:09.697Z,1008.64
2023-04-22T09:04:09.701Z,1008.72
2023-04-22T09:05:09.588Z,1008.63
2023-04-22T09:06:09.571Z,1008.60
2023-04-22T09:07:09.568Z,1008.74
2023-04-22T09:08:09.548Z,1008.73
2023-04-22T09:09:09.551Z,1008.64
2023-04-22T09:10:09.545Z,1008.54
2023-04-22T09:11:09.594Z,1008.54
2023-04-22T09:12:09.540Z,1008.53
2023-04-22T09:13:09.505Z,1008.59
2023-04-22T09:14:09.511Z,1008.63
2023-04-22T09:15:09.479Z,1008.57
2023-04-22T09:16:09.487Z,1008.58
2023-04-22T09:17:09.481Z,1008.66
2023-04-22T09:18:09.478Z,1008.57
2023-04-22T09:19:09.439Z,1008.57
2023-04-22T09:20:09.433Z,1008.60
2023-04-22T09:21:09.444Z,1008.55
2023-04-22T09:22:09.452Z,1008.51
2023-04-22T09:23:09.435Z,1008.48
2023-04-22T09:24:09.403Z,1008.53
2023-04-22T09:25:09.381Z,1008.47
2023-04-22T09:26:09.368Z,1008.48
2023-04-22T09:27:09.383Z,1008.51
2023-04-22T09:28:09.369Z,1008.51
2023-04-22T09:29:09.397Z,1008.47
2023-04-22T09:30:09.351Z,1008.46
2023-04-22T09:31:09.354Z,1008.52
2023-04-22T09:32:09.438Z,1008.47
2023-04-22T09:33:09.364Z,1008.40
2023-04-22T09:34:09.293Z,1008.38
2023-04-22T09:35:09.460Z,1008.42
2023-04-22T09:36:09.302Z,1008.37
2023-04-22T09:37:09.302Z,1008.41
2023-04-22T09:38:09.260Z,1008.37
2023-04-22T09:39:09.248Z,1008.41
2023-04-22T09:40:09.251Z,1008.39
2023-04-22T09:41:09.244Z,1008.35
2023-04-22T09:42:09.215Z,1008.35
2023-04-22T09:43:09.230Z,1008.32
2023-04-22T09:44:09.832Z,1008.34
2023-04-22T09:45:09.202Z,1008.38
2023-04-22T09:46:09.196Z,1008.28
2023-04-22T09:47:09.199Z,1008.30
2023-04-22T09:48:09.158Z,1008.33
2023-04-22T09:49:09.161Z,1008.34
2023-04-22T09:50:09.156Z,1008.30
2023-04-22T09:51:09.131Z,1008.41
2023-04-22T09:52:09.119Z,1008.36
2023-04-22T09:53:09.121Z,1008.29
2023-04-22T09:54:09.158Z,1008.24
2023-04-22T09:55:09.106Z,1008.32
2023-04-22T09:56:09.843Z,1008.25
2023-04-22T09:57:09.064Z,1008.24
2023-04-22T09:58:09.076Z,1008.24
2023-04-22T09:59:09.059Z,1008.18
2023-04-22T10:00:09.042Z,1008.26
2023-04-22T10:01:09.066Z,1008.17
2023-04-22T10:02:09.079Z,1008.19
2023-04-22T10:03:10.858Z,1008.14
2023-04-22T10:04:09.039Z,1008.11
2023-04-22T10:05:09.102Z,1008.16
2023-04-22T10:06:09.024Z,1008.17
2023-04-22T10:07:08.986Z,1008.11
2023-04-22T10:08:09.078Z,1008.16
2023-04-22T10:09:09.597Z,1008.08
2023-04-22T10:10:09.035Z,1007.99
2023-04-22T10:11:08.948Z,1008.01
2023-04-22T10:12:08.929Z,1008.13
2023-04-22T10:13:08.916Z,1008.11
2023-04-22T10:14:08.906Z,1008.10
2023-04-22T10:15:08.898Z,1008.02
2023-04-22T10:16:08.910Z,1008.04
2023-04-22T10:17:08.938Z,1008.13
2023-04-22T10:18:08.871Z,1008.02
2023-04-22T10:19:08.857Z,1008.08
2023-04-22T10:20:08.856Z,1008.01
2023-04-22T10:21:08.854Z,1007.90
2023-04-22T10:22:08.845Z,1007.97
2023-04-22T10:23:08.827Z,1008.01
2023-04-22T10:24:08.812Z,1007.98
2023-04-22T10:25:08.855Z,1008.00
2023-04-22T10:26:08.804Z,1007.93
2023-04-22T10:27:08.786Z,1007.92
2023-04-22T10:28:08.780Z,1007.97
2023-04-22T10:29:08.759Z,1007.87
2023-04-22T10:30:08.803Z,1007.90
2023-04-22T10:31:08.810Z,1007.85
2023-04-22T10:32:10.768Z,1007.90
2023-04-22T10:33:08.745Z,1007.94
2023-04-22T10:34:08.709Z,1007.86
2023-04-22T10:35:08.698Z,1007.87
2023-04-22T10:36:08.744Z,1007.72
2023-04-22T10:37:08.697Z,1007.77
2023-04-22T10:38:08.675Z,1007.79
2023-04-22T10:39:08.661Z,1007.73
2023-04-22T10:40:08.657Z,1007.73
2023-04-22T10:41:08.659Z,1007.76
2023-04-22T10:42:08.644Z,1007.65
2023-04-22T10:43:08.645Z,1007.71
2023-04-22T10:44:08.615Z,1007.71
2023-04-22T10:45:08.607Z,1007.68
2023-04-22T10:46:08.711Z,1007.64
2023-04-22T10:47:08.581Z,1007.66
2023-04-22T10:48:08.597Z,1007.69
2023-04-22T10:49:08.831Z,1007.61
2023-04-22T10:50:08.695Z,1007.61
2023-04-22T10:51:08.554Z,1007.63
2023-04-22T10:52:08.591Z,1007.67
2023-04-22T10:53:08.543Z,1007.62
2023-04-22T10:54:08.524Z,1007.66
2023-04-22T10:55:08.518Z,1007.61
2023-04-22T10:56:08.520Z,1007.61
2023-04-22T10:57:08.494Z,1007.61
2023-04-22T10:58:08.482Z,1007.56
2023-04-22T10:59:08.469Z,1007.46
2023-04-22T11:00:08.484Z,1007.54
2023-04-22T11:01:08.496Z,1007.56
2023-04-22T11:02:08.559Z,1007.55
2023-04-22T11:03:08.524Z,1007.59
2023-04-22T11:04:08.505Z,1007.47
2023-04-22T11:05:08.415Z,1007.44
2023-04-22T11:06:08.429Z,1007.51
2023-04-22T11:07:08.458Z,1007.54
2023-04-22T11:08:08.410Z,1007.46
2023-04-22T11:09:08.481Z,1007.47
2023-04-22T11:10:08.371Z,1007.42
2023-04-22T11:11:08.366Z,1007.48
2023-04-22T11:12:08.350Z,1007.42
2023-04-22T11:13:08.396Z,1007.52
2023-04-22T11:14:08.334Z,1007.42
2023-04-22T11:15:08.315Z,1007.39
2023-04-22T11:16:08.325Z,1007.47
2023-04-22T11:17:08.318Z,1007.42
2023-04-22T11:18:08.295Z,1007.35
2023-04-22T11:19:08.923Z,1007.38
2023-04-22T11:20:08.302Z,1007.43
2023-04-22T11:21:08.271Z,1007.42
2023-04-22T11:22:08.256Z,1007.36
2023-04-22T11:23:08.256Z,1007.34
2023-04-22T11:24:08.239Z,1007.29
2023-04-22T11:25:08.248Z,1007.32
2023-04-22T11:26:08.337Z,1007.38
2023-04-22T11:27:08.214Z,1007.38
2023-04-22T11:28:08.339Z,1007.39
2023-04-22T11:29:08.187Z,1007.33
2023-04-22T11:30:08.189Z,1007.36
2023-04-22T11:31:08.398Z,1007.33
2023-04-22T11:32:08.156Z,1007.24
2023-04-22T11:33:08.173Z,1007.37
2023-04-22T11:34:08.143Z,1007.32
2023-04-22T11:35:08.130Z,1007.22
2023-04-22T11:36:08.125Z,1007.24
2023-04-22T11:37:08.112Z,1007.17
2023-04-22T11:38:08.119Z,1007.21
2023-04-22T11:39:08.092Z,1007.22
2023-04-22T11:40:27.760Z,1007.10
2023-04-22T11:41:09.096Z,1007.17
2023-04-22T11:42:08.065Z,1007.24
2023-04-22T11:43:08.409Z,1007.19
2023-04-22T11:44:08.046Z,1007.15
2023-04-22T11:45:08.029Z,1007.14
2023-04-22T11:46:08.048Z,1007.16
2023-04-22T11:47:08.035Z,1007.13
2023-04-22T11:48:08.021Z,1007.13
2023-04-22T11:49:07.995Z,1007.07
2023-04-22T11:50:07.984Z,1007.08
2023-04-22T11:51:07.980Z,1007.00
2023-04-22T11:52:07.965Z,1006.99
2023-04-22T11:53:07.979Z,1006.96
2023-04-22T11:54:07.949Z,1006.97
2023-04-22T11:55:07.940Z,1007.06
2023-04-22T11:56:07.932Z,1007.09
2023-04-22T11:57:08.028Z,1007.06
2023-04-22T11:58:07.912Z,1007.03
2023-04-22T11:59:07.903Z,1006.99
2023-04-22T12:00:17.412Z,1007.00
2023-04-22T12:01:07.900Z,1006.95
2023-04-22T12:02:07.975Z,1006.99
2023-04-22T12:03:08.176Z,1006.95
2023-04-22T12:04:07.959Z,1006.92
2023-04-22T12:05:07.867Z,1006.93